Indianapolis, IN (46280)

4:29 PM EST on December 27, 2014 (GMT -0500)
Clay Township N7CZ | Change Station
CLOSE
Current Station
Personal Weather Station
Location: Indianapolis, IN
Elevation: 840 ft
Nearby Weather Stations

Elev 840 ft 39.93 °N, 86.14 °W | Updated 8 seconds ago

Overcast
Overcast
47.5 °F
Feels Like 46 °F
N
3.6
Wind Variable Wind from WSW
Gusts 9.8 mph

Today
High -- | Low -- °F
--% Chance of Precip.
Yesterday
High -- | Low -- °F
Precip. -- in
8:05 AM 5:26 PM
Waxing Crescent, 40% visible
Pressure 30.07 in
Visibility 0.0 miles
Clouds Overcast 300 ft
Windchill 46 °F
Dew Point 47 °F
Humidity 99%
Rainfall 0.02 in
Snow Depth Not available.
UV 0 out of 12
Pollen .10 out of 12
Air Quality Not available.
Flu Activity Not available.
SPECI KIND 272103Z 21010KT 0SM R05L/6000VP6000FT -DZ BR OVC003 08/07 A3007 RMK AO2 SFC VIS 1 P0000 T00780072

More Conditions Fewer Conditions

Pressure 30.07 in
Visibility 0.0 miles
Clouds Overcast 300 ft
Windchill 46 °F
Dew Point 47 °F
Humidity 99%
Rainfall 0.02 in
Snow Depth Not available.
UV 0 out of 12
Pollen .10 out of 12
Air Quality Not available.
Flu Activity Not available.
SPECI KIND 272103Z 21010KT 0SM R05L/6000VP6000FT -DZ BR OVC003 08/07 A3007 RMK AO2 SFC VIS 1 P0000 T00780072

More Conditions Fewer Conditions

10-Day Weather Forecast

Almanac

Astronomy

Dec. 27, 2014 Rise Set
Actual Time
Civil Twilight
Nautical Twilight
Astronomical Twilight
Moon
Length of Visible Light
Length of Day
Tomorrow will be .
, % of the Moon is Illuminated

Today's Extremes

State Highs State Lows

Community

WunderPhotos

Upload Photos

1,781,073 photos uploaded!

WunderBlogs® & News

Nearby

Air Quality

  Air Quality AQ Index Pollutant
Not available.

Snow Depth

Station Depth Elevation

Earthquake Activity

City Distance Mag. Time & Date
Minimum magnitude displayed is 2.5.

Coastal Water Temperatures

Place Temperature

Nearby Weather Stations